sim
Sign-in with your pilot id or email,
or register
Callsign
Passwort

Schedule Details

Flight Number: RYR3329
Departure: Paphos International Airport (LCPH) at 05:00
Arrival: Bratislava M. R. Stefanik Airport (LZIB) at 08:05
Route: Ryanair Passenger Schedule. Enter filed route here before submitting Pirep.

Weather Information
Getting current METAR information for LCPH 232000Z 12012KT 9999 TS SCT020 FEW030CB 22/16 Q1011
Getting current METAR information for LZIB 232000Z 05007KT CAVOK 13/10 Q1017

Schedule Frequency

Route Map